Pagrindinis puslapis
METAR-TAF:

METAR-TAF

Oro uostai :

Piza, Italija

platuma: 43-41N, ilguma: 010-23E, Aukštis: 2 m

Dabartinis oras

Ataskaita buvo paskelbta 45 minutes, ne 19:45 UTC
Vėjas 3 kt iš Pietų
Temperatūra 11°C
Drėgmė 76%
Slėgis 1021 hPa
Matomumas 10 km arba daugiau
nėra debesų žemiau 1500 m ir nėra kamuolinių lietaus debesų

METAR: LIRP 091945Z 19003KT CAVOK 11/07 Q1021 NOSIG

Laikas: 22:30 (20:30 UTC)

Prognozė

Ataskaita buvo paskelbta 3 valandos ir 30 minutes, ne 17:00 UTC
Prognozė galioja nuo 09 metu 18 UTC su 10 metu 18 UTC
Vėjas 10 kt iš Vakarų/Šiaurės Vakarų
Matomumas 10 km arba daugiau
nėra debesų žemiau 1500 m ir nėra kamuolinių lietaus debesų
Tapsmas
nuo 09 metu 19 UTC su 09 metu 21 UTC
Vėjas 8 kt iš Rytų
Tapsmas
nuo 10 metu 12 UTC su 10 metu 14 UTC
Vėjas 10 kt iš Vakarų/Šiaurės Vakarų

TAF: LIRP 091700Z 0918/1018 30010KT CAVOK BECMG 0919/0921 10008KT BECMG 1012/1014 30010KT

Orai ataskaitas ir orų prognozės (METAR, TAF).

turimą stotys yra geltonos ir raudonos taškus žemėlapyje.

Perkelti pele per norėdami pamatyti stoties vardą.

Tada spustelėkite, norėdami matyti oro stebėjimo ir prognozės.

Norėdami pakeisti žemėlapį: spustelėkite ant žalios mygtukų su juodo kryžiaus žemyn,; žalią mygtuką su brūkšneliu, jei norite nutolinti; arba žalių rodyklių gretimoms žemėlapius.


METAR-TAF: